createdAt,value
2018-02-20T00:00:03.425Z,4.90
2018-02-20T00:02:31.001Z,4.91
2018-02-20T00:04:58.815Z,4.90
2018-02-20T00:07:26.414Z,4.90
2018-02-20T00:09:53.993Z,4.93
2018-02-20T00:12:21.592Z,4.85
2018-02-20T00:14:49.258Z,4.86
2018-02-20T00:17:16.835Z,4.75
2018-02-20T00:19:44.796Z,4.77
2018-02-20T00:22:16.261Z,4.74
2018-02-20T00:24:44.010Z,4.75
2018-02-20T00:27:11.599Z,4.80
2018-02-20T00:29:39.234Z,4.84
2018-02-20T00:32:06.801Z,4.86
2018-02-20T00:34:34.440Z,4.90
2018-02-20T00:37:02.072Z,4.94
2018-02-20T00:39:29.650Z,4.93
2018-02-20T00:41:57.320Z,4.87
2018-02-20T00:44:25.886Z,4.89
2018-02-20T00:46:53.466Z,4.86
2018-02-20T00:49:21.044Z,4.89
2018-02-20T00:51:49.395Z,4.83
2018-02-20T00:54:16.986Z,4.79
2018-02-20T00:56:44.589Z,4.81
2018-02-20T00:59:12.221Z,4.77
2018-02-20T01:01:39.792Z,4.73
2018-02-20T01:04:07.375Z,4.75
2018-02-20T01:06:35.004Z,4.72
2018-02-20T01:09:02.595Z,4.75
2018-02-20T01:11:30.157Z,4.75
2018-02-20T01:13:57.773Z,4.74
2018-02-20T01:16:25.345Z,4.72
2018-02-20T01:18:52.913Z,4.65
2018-02-20T01:21:20.531Z,4.71
2018-02-20T01:23:48.098Z,4.65
2018-02-20T01:26:16.597Z,4.68
2018-02-20T01:28:44.235Z,4.66
2018-02-20T01:31:11.811Z,4.69
2018-02-20T01:33:39.376Z,4.63
2018-02-20T01:36:06.988Z,4.62
2018-02-20T01:38:34.613Z,4.69
2018-02-20T01:41:05.957Z,4.69
2018-02-20T01:43:33.613Z,4.67
2018-02-20T01:46:01.217Z,4.72
2018-02-20T01:48:34.796Z,4.67
2018-02-20T01:51:11.537Z,4.69
2018-02-20T01:53:40.140Z,4.64
2018-02-20T01:56:07.819Z,4.65
2018-02-20T01:58:35.944Z,4.62
2018-02-20T02:01:03.684Z,4.62
2018-02-20T02:03:31.542Z,4.66
2018-02-20T02:05:59.912Z,4.62
2018-02-20T02:08:29.680Z,4.53
2018-02-20T02:10:57.953Z,4.47
2018-02-20T02:13:25.548Z,4.41
2018-02-20T02:15:55.743Z,4.43
2018-02-20T02:18:28.725Z,4.45
2018-02-20T02:20:59.245Z,4.47
2018-02-20T02:23:29.187Z,4.52
2018-02-20T02:25:57.875Z,4.53
2018-02-20T02:28:26.266Z,4.52
2018-02-20T02:30:55.147Z,4.53
2018-02-20T02:33:22.716Z,4.60
2018-02-20T02:35:50.329Z,4.61
2018-02-20T02:38:17.906Z,4.67
2018-02-20T02:40:45.469Z,4.67
2018-02-20T02:43:13.084Z,4.65
2018-02-20T02:45:40.635Z,4.69
2018-02-20T02:48:08.196Z,4.71
2018-02-20T02:50:35.834Z,4.75
2018-02-20T02:53:03.420Z,4.73
2018-02-20T02:55:30.996Z,4.74
2018-02-20T02:57:58.610Z,4.78
2018-02-20T03:00:26.709Z,4.73
2018-02-20T03:02:54.294Z,4.69
2018-02-20T03:05:21.927Z,4.68
2018-02-20T03:07:49.499Z,4.67
2018-02-20T03:10:17.068Z,4.65
2018-02-20T03:12:44.757Z,4.61
2018-02-20T03:15:12.754Z,4.49
2018-02-20T03:17:40.389Z,4.48
2018-02-20T03:20:08.022Z,4.46
2018-02-20T03:22:35.582Z,4.43
2018-02-20T03:25:03.186Z,4.53
2018-02-20T03:27:31.024Z,4.55
2018-02-20T03:29:58.704Z,4.56
2018-02-20T03:32:26.338Z,4.60
2018-02-20T03:34:53.948Z,4.67
2018-02-20T03:37:21.543Z,4.64
2018-02-20T03:39:49.113Z,4.65
2018-02-20T03:42:16.787Z,4.62
2018-02-20T03:44:44.358Z,4.64
2018-02-20T03:47:11.932Z,4.66
2018-02-20T03:49:39.542Z,4.66
2018-02-20T03:52:07.111Z,4.63
2018-02-20T03:54:34.689Z,4.54
2018-02-20T03:57:02.557Z,4.45
2018-02-20T03:59:30.146Z,4.45
2018-02-20T04:01:57.714Z,4.43
2018-02-20T04:04:25.329Z,4.45
2018-02-20T04:06:52.883Z,4.43
2018-02-20T04:09:20.448Z,4.47
2018-02-20T04:11:48.084Z,4.52
2018-02-20T04:14:15.715Z,4.50
2018-02-20T04:16:43.285Z,4.42
2018-02-20T04:19:10.916Z,4.43
2018-02-20T04:21:38.472Z,4.43
2018-02-20T04:24:06.059Z,4.46
2018-02-20T04:26:33.717Z,4.51
2018-02-20T04:29:01.355Z,4.50
2018-02-20T04:31:29.556Z,4.51
2018-02-20T04:33:57.195Z,4.56
2018-02-20T04:36:24.845Z,4.61
2018-02-20T04:38:52.486Z,4.58
2018-02-20T04:41:20.114Z,4.59
2018-02-20T04:43:47.678Z,4.61
2018-02-20T04:46:15.251Z,4.60
2018-02-20T04:48:42.884Z,4.64
2018-02-20T04:51:10.461Z,4.58
2018-02-20T04:53:38.027Z,4.58
2018-02-20T04:56:05.723Z,4.59
2018-02-20T04:58:33.333Z,4.59
2018-02-20T05:01:00.969Z,4.64
2018-02-20T05:03:28.601Z,4.63
2018-02-20T05:05:56.161Z,4.69
2018-02-20T05:08:23.806Z,4.73
2018-02-20T05:10:51.428Z,4.65
2018-02-20T05:13:19.017Z,4.62
2018-02-20T05:15:46.614Z,4.61
2018-02-20T05:18:14.242Z,4.53
2018-02-20T05:20:41.812Z,4.55
2018-02-20T05:23:09.552Z,4.55
2018-02-20T05:25:37.642Z,4.53
2018-02-20T05:28:05.235Z,4.51
2018-02-20T05:30:32.871Z,4.53
2018-02-20T05:33:00.729Z,4.50
2018-02-20T05:35:28.312Z,4.51
2018-02-20T05:37:55.877Z,4.56
2018-02-20T05:40:23.520Z,4.62
2018-02-20T05:42:51.094Z,4.61
2018-02-20T05:45:18.656Z,4.65
2018-02-20T05:47:47.143Z,4.67
2018-02-20T05:50:14.704Z,4.73
2018-02-20T05:52:43.046Z,4.76
2018-02-20T05:55:10.671Z,4.78
2018-02-20T05:57:38.268Z,4.80
2018-02-20T06:00:05.826Z,4.73
2018-02-20T06:02:33.452Z,4.76
2018-02-20T06:05:01.025Z,4.78
2018-02-20T06:07:28.670Z,4.66
2018-02-20T06:09:56.373Z,4.68
2018-02-20T06:12:23.934Z,4.73
2018-02-20T06:14:51.648Z,4.74
2018-02-20T06:17:19.269Z,4.69
2018-02-20T06:19:46.873Z,4.71
2018-02-20T06:22:14.450Z,4.68
2018-02-20T06:24:42.140Z,4.63
2018-02-20T06:27:09.773Z,4.65
2018-02-20T06:29:37.375Z,4.68
2018-02-20T06:32:05.104Z,4.69
2018-02-20T06:34:32.850Z,4.69
2018-02-20T06:37:00.517Z,4.73
2018-02-20T06:39:28.184Z,4.75
2018-02-20T06:41:55.756Z,4.76
2018-02-20T06:44:23.415Z,4.79
2018-02-20T06:46:51.051Z,4.83
2018-02-20T06:49:18.634Z,4.85
2018-02-20T06:51:46.264Z,4.76
2018-02-20T06:54:13.949Z,4.74
2018-02-20T06:56:41.518Z,4.77
2018-02-20T06:59:09.092Z,4.76
2018-02-20T07:01:36.730Z,4.78
2018-02-20T07:04:04.342Z,4.73
2018-02-20T07:06:31.938Z,4.62
2018-02-20T07:08:59.573Z,4.70
2018-02-20T07:11:27.200Z,4.75
2018-02-20T07:13:55.585Z,4.69
2018-02-20T07:16:23.211Z,4.73
2018-02-20T07:18:50.791Z,4.73
2018-02-20T07:21:18.429Z,4.68
2018-02-20T07:23:46.060Z,4.65
2018-02-20T07:26:13.656Z,4.73
2018-02-20T07:28:41.334Z,4.80
2018-02-20T07:31:08.979Z,4.75
2018-02-20T07:33:36.549Z,4.71
2018-02-20T07:36:04.286Z,4.71
2018-02-20T07:38:31.902Z,4.74
2018-02-20T07:40:59.471Z,4.68
2018-02-20T07:43:27.055Z,4.63
2018-02-20T07:45:54.680Z,4.67
2018-02-20T07:48:22.284Z,4.71
2018-02-20T07:50:49.937Z,4.67
2018-02-20T07:53:17.573Z,4.60
2018-02-20T07:55:45.146Z,4.44
2018-02-20T07:58:12.749Z,4.48
2018-02-20T08:00:40.412Z,4.42
2018-02-20T08:03:07.994Z,4.47
2018-02-20T08:05:35.587Z,4.49
2018-02-20T08:08:03.215Z,4.47
2018-02-20T08:10:31.243Z,4.43
2018-02-20T08:12:59.803Z,4.50
2018-02-20T08:15:27.445Z,4.52
2018-02-20T08:17:55.008Z,4.43
2018-02-20T08:20:22.654Z,4.42
2018-02-20T08:22:50.339Z,4.41
2018-02-20T08:25:17.937Z,4.50
2018-02-20T08:27:45.594Z,4.49
2018-02-20T08:30:13.221Z,4.57
2018-02-20T08:32:40.815Z,4.64
2018-02-20T08:35:08.467Z,4.74
2018-02-20T08:37:36.253Z,4.74
2018-02-20T08:40:03.837Z,4.73
2018-02-20T08:42:31.440Z,4.80
2018-02-20T08:44:59.086Z,4.85
2018-02-20T08:47:26.722Z,4.91
2018-02-20T08:49:54.312Z,4.99
2018-02-20T08:52:22.810Z,5.02
2018-02-20T08:54:50.434Z,5.05
2018-02-20T08:57:18.014Z,5.09
2018-02-20T08:59:45.661Z,5.15
2018-02-20T09:02:13.252Z,5.12
2018-02-20T09:04:40.830Z,5.15
2018-02-20T09:07:08.611Z,5.02
2018-02-20T09:09:36.213Z,5.07
2018-02-20T09:12:03.806Z,5.05
2018-02-20T09:14:31.494Z,5.02
2018-02-20T09:16:59.086Z,5.02
2018-02-20T09:19:26.924Z,5.08
2018-02-20T09:21:54.715Z,5.10
2018-02-20T09:24:22.287Z,5.15
2018-02-20T09:26:50.051Z,5.22
2018-02-20T09:29:17.907Z,5.22
2018-02-20T09:31:45.505Z,5.22
2018-02-20T09:34:13.161Z,5.20
2018-02-20T09:36:40.822Z,5.23
2018-02-20T09:39:08.504Z,5.24
2018-02-20T09:41:36.062Z,5.21
2018-02-20T09:44:03.753Z,5.25
2018-02-20T09:46:31.313Z,5.20
2018-02-20T09:48:59.225Z,5.26
2018-02-20T09:51:26.922Z,5.32
2018-02-20T09:53:54.489Z,5.37
2018-02-20T09:56:22.066Z,5.36
2018-02-20T09:58:49.699Z,5.41
2018-02-20T10:01:17.345Z,5.49
2018-02-20T10:03:44.989Z,5.49
2018-02-20T10:06:12.622Z,5.57
2018-02-20T10:08:40.219Z,5.63
2018-02-20T10:11:07.804Z,5.54
2018-02-20T10:13:35.419Z,5.56
2018-02-20T10:16:03.019Z,5.51
2018-02-20T10:18:30.596Z,5.50
2018-02-20T10:20:58.246Z,5.50
2018-02-20T10:23:26.575Z,5.55
2018-02-20T10:25:54.136Z,5.58
2018-02-20T10:28:21.774Z,5.64
2018-02-20T10:30:49.352Z,5.59
2018-02-20T10:33:16.923Z,5.62
2018-02-20T10:35:44.793Z,5.61
2018-02-20T10:38:12.376Z,5.59
2018-02-20T10:40:40.082Z,5.62
2018-02-20T10:43:07.771Z,5.63
2018-02-20T10:45:35.342Z,5.54
2018-02-20T10:48:02.918Z,5.56
2018-02-20T10:50:30.525Z,5.57
2018-02-20T10:52:58.162Z,5.54
2018-02-20T10:55:25.758Z,5.48
2018-02-20T10:57:53.389Z,5.45
2018-02-20T11:00:20.956Z,5.50
2018-02-20T11:02:48.555Z,5.52
2018-02-20T11:05:16.194Z,5.52
2018-02-20T11:07:43.775Z,5.55
2018-02-20T11:10:11.360Z,5.60
2018-02-20T11:12:38.979Z,5.64
2018-02-20T11:15:06.618Z,5.60
2018-02-20T11:17:34.220Z,5.63
2018-02-20T11:20:01.874Z,5.65
2018-02-20T11:22:29.967Z,5.71
2018-02-20T11:24:57.926Z,5.68
2018-02-20T11:27:25.778Z,5.60
2018-02-20T11:29:53.358Z,5.55
2018-02-20T11:32:20.929Z,5.55
2018-02-20T11:34:48.705Z,5.51
2018-02-20T11:37:16.272Z,5.55
2018-02-20T11:39:43.910Z,5.46
2018-02-20T11:42:13.534Z,5.48
2018-02-20T11:44:41.110Z,5.53
2018-02-20T11:47:08.675Z,5.57
2018-02-20T11:49:36.394Z,5.59
2018-02-20T11:52:03.965Z,5.50
2018-02-20T11:54:31.538Z,5.48
2018-02-20T11:56:59.178Z,5.37
2018-02-20T11:59:27.654Z,5.28
2018-02-20T12:01:55.228Z,5.29
2018-02-20T12:04:23.110Z,5.33
2018-02-20T12:06:50.682Z,5.40
2018-02-20T12:09:18.317Z,5.38
2018-02-20T12:11:46.004Z,5.39
2018-02-20T12:14:13.564Z,5.46
2018-02-20T12:16:41.151Z,5.51
2018-02-20T12:19:08.789Z,5.59
2018-02-20T12:21:36.384Z,5.62
2018-02-20T12:24:03.966Z,5.63
2018-02-20T12:26:31.565Z,5.63
2018-02-20T12:28:59.149Z,5.58
2018-02-20T12:31:26.787Z,5.55
2018-02-20T12:33:54.433Z,5.59
2018-02-20T12:36:22.087Z,5.68
2018-02-20T12:38:50.981Z,5.77
2018-02-20T12:41:18.894Z,5.85
2018-02-20T12:43:46.598Z,5.91
2018-02-20T12:46:14.156Z,5.85
2018-02-20T12:48:41.777Z,5.83
2018-02-20T12:51:09.359Z,5.82
2018-02-20T12:53:36.944Z,5.78
2018-02-20T12:56:05.355Z,5.75
2018-02-20T12:58:32.916Z,5.81
2018-02-20T13:01:00.492Z,5.80
2018-02-20T13:03:30.062Z,5.77
2018-02-20T13:05:57.720Z,5.78
2018-02-20T13:08:25.783Z,5.80
2018-02-20T13:10:53.419Z,5.82
2018-02-20T13:13:21.098Z,5.88
2018-02-20T13:15:48.676Z,5.83
2018-02-20T13:18:16.324Z,5.81
2018-02-20T13:20:43.906Z,5.82
2018-02-20T13:23:11.494Z,5.84
2018-02-20T13:25:39.133Z,5.87
2018-02-20T13:28:06.697Z,5.74
2018-02-20T13:30:34.360Z,5.79
2018-02-20T13:33:01.989Z,5.82
2018-02-20T13:35:29.554Z,5.84
2018-02-20T13:37:57.128Z,5.87
2018-02-20T13:40:25.352Z,5.87
2018-02-20T13:42:52.948Z,5.89
2018-02-20T13:45:20.778Z,5.91
2018-02-20T13:47:48.785Z,5.93
2018-02-20T13:50:16.370Z,5.95
2018-02-20T13:52:43.946Z,5.98
2018-02-20T13:55:11.600Z,5.97
2018-02-20T13:57:39.239Z,5.99
2018-02-20T14:00:06.819Z,5.98
2018-02-20T14:02:34.454Z,6.02
2018-02-20T14:05:02.024Z,6.02
2018-02-20T14:07:29.602Z,6.02
2018-02-20T14:09:57.248Z,6.05
2018-02-20T14:12:24.834Z,6.03
2018-02-20T14:14:52.420Z,6.00
2018-02-20T14:17:20.056Z,6.01
2018-02-20T14:19:47.653Z,6.03
2018-02-20T14:22:15.246Z,6.08
2018-02-20T14:24:42.893Z,6.11
2018-02-20T14:27:11.313Z,6.11
2018-02-20T14:29:39.135Z,6.16
2018-02-20T14:32:06.812Z,6.17
2018-02-20T14:34:34.386Z,6.19
2018-02-20T14:37:01.966Z,6.18
2018-02-20T14:39:29.656Z,6.18
2018-02-20T14:41:57.318Z,6.20
2018-02-20T14:44:24.899Z,6.25
2018-02-20T14:46:52.617Z,6.29
2018-02-20T14:49:20.198Z,6.23
2018-02-20T14:51:47.786Z,6.25
2018-02-20T14:54:15.470Z,6.29
2018-02-20T14:56:43.143Z,6.24
2018-02-20T14:59:10.748Z,6.22
2018-02-20T15:01:38.593Z,5.99
2018-02-20T15:04:06.170Z,6.04
2018-02-20T15:06:33.810Z,6.06
2018-02-20T15:09:01.537Z,5.98
2018-02-20T15:11:29.104Z,5.99
2018-02-20T15:13:56.721Z,6.00
2018-02-20T15:16:24.372Z,6.06
2018-02-20T15:18:51.974Z,6.05
2018-02-20T15:21:19.568Z,6.04
2018-02-20T15:23:47.248Z,5.97
2018-02-20T15:26:14.828Z,5.86
2018-02-20T15:28:42.427Z,5.80
2018-02-20T15:31:10.090Z,5.84
2018-02-20T15:33:37.663Z,5.77
2018-02-20T15:36:05.249Z,5.76
2018-02-20T15:38:33.110Z,5.79
2018-02-20T15:41:00.669Z,5.80
2018-02-20T15:43:28.232Z,5.75
2018-02-20T15:45:55.879Z,5.73
2018-02-20T15:48:23.566Z,5.72
2018-02-20T15:50:51.172Z,5.70
2018-02-20T15:53:18.842Z,5.70
2018-02-20T15:55:46.483Z,5.64
2018-02-20T15:58:14.129Z,5.69
2018-02-20T16:00:41.819Z,5.69
2018-02-20T16:03:09.395Z,5.69
2018-02-20T16:05:36.975Z,5.75
2018-02-20T16:08:04.659Z,5.74
2018-02-20T16:10:32.243Z,5.78
2018-02-20T16:12:59.805Z,5.72
2018-02-20T16:15:27.478Z,5.75
2018-02-20T16:17:55.065Z,5.72
2018-02-20T16:20:22.638Z,5.72
2018-02-20T16:22:50.260Z,5.70
2018-02-20T16:25:17.894Z,5.66
2018-02-20T16:27:45.562Z,5.63
2018-02-20T16:30:13.179Z,5.63
2018-02-20T16:32:40.744Z,5.64
2018-02-20T16:35:08.374Z,5.65
2018-02-20T16:37:36.275Z,5.70
2018-02-20T16:40:03.885Z,5.68
2018-02-20T16:42:31.519Z,5.68
2018-02-20T16:44:59.192Z,5.59
2018-02-20T16:47:26.794Z,5.61
2018-02-20T16:49:55.299Z,5.64
2018-02-20T16:52:22.897Z,5.65
2018-02-20T16:54:50.458Z,5.64
2018-02-20T16:57:18.086Z,5.60
2018-02-20T16:59:45.738Z,5.57
2018-02-20T17:02:13.297Z,5.50
2018-02-20T17:04:40.867Z,5.48
2018-02-20T17:07:08.494Z,5.50
2018-02-20T17:09:36.127Z,5.51
2018-02-20T17:12:03.701Z,5.53
2018-02-20T17:14:31.335Z,5.54
2018-02-20T17:16:58.906Z,5.57
2018-02-20T17:19:26.479Z,5.49
2018-02-20T17:21:54.106Z,5.57
2018-02-20T17:24:21.889Z,5.59
2018-02-20T17:26:49.538Z,5.58
2018-02-20T17:29:17.231Z,5.54
2018-02-20T17:31:44.785Z,5.55
2018-02-20T17:34:12.358Z,5.57
2018-02-20T17:36:40.504Z,5.60
2018-02-20T17:39:08.489Z,5.59
2018-02-20T17:41:36.070Z,5.64
2018-02-20T17:44:03.889Z,5.57
2018-02-20T17:46:31.469Z,5.56
2018-02-20T17:48:59.114Z,5.58
2018-02-20T17:51:26.855Z,5.55
2018-02-20T17:53:54.410Z,5.58
2018-02-20T17:56:21.984Z,5.61
2018-02-20T17:58:49.632Z,5.61
2018-02-20T18:01:17.202Z,5.67
2018-02-20T18:03:44.886Z,5.66
2018-02-20T18:06:12.889Z,5.63
2018-02-20T18:08:40.468Z,5.62
2018-02-20T18:11:08.054Z,5.65
2018-02-20T18:13:35.710Z,5.65
2018-02-20T18:16:03.292Z,5.63
2018-02-20T18:18:30.867Z,5.61
2018-02-20T18:20:58.829Z,5.63
2018-02-20T18:23:26.384Z,5.60
2018-02-20T18:25:54.042Z,5.62
2018-02-20T18:28:21.680Z,5.59
2018-02-20T18:30:49.253Z,5.58
2018-02-20T18:33:16.828Z,5.59
2018-02-20T18:35:44.446Z,5.66
2018-02-20T18:38:12.975Z,5.66
2018-02-20T18:40:40.712Z,5.66
2018-02-20T18:43:08.353Z,5.70
2018-02-20T18:45:35.916Z,5.70
2018-02-20T18:48:03.497Z,5.65
2018-02-20T18:50:31.114Z,5.55
2018-02-20T18:52:58.810Z,5.60
2018-02-20T18:55:26.382Z,5.63
2018-02-20T18:57:54.370Z,5.61
2018-02-20T19:00:21.943Z,5.59
2018-02-20T19:02:49.496Z,5.62
2018-02-20T19:05:17.285Z,5.67
2018-02-20T19:07:44.858Z,5.62
2018-02-20T19:10:12.448Z,5.61
2018-02-20T19:12:40.073Z,5.61
2018-02-20T19:15:07.662Z,5.60
2018-02-20T19:17:35.250Z,5.59
2018-02-20T19:20:03.401Z,5.64
2018-02-20T19:22:30.978Z,5.65
2018-02-20T19:24:59.072Z,5.66
2018-02-20T19:27:26.701Z,5.58
2018-02-20T19:29:54.258Z,5.56
2018-02-20T19:32:21.818Z,5.58
2018-02-20T19:34:49.501Z,5.57
2018-02-20T19:37:17.080Z,5.54
2018-02-20T19:39:44.709Z,5.54
2018-02-20T19:42:12.341Z,5.51
2018-02-20T19:44:39.906Z,5.52
2018-02-20T19:47:08.139Z,5.52
2018-02-20T19:49:35.791Z,5.52
2018-02-20T19:52:03.371Z,5.53
2018-02-20T19:54:31.801Z,5.47
2018-02-20T19:56:59.430Z,5.46
2018-02-20T19:59:27.021Z,5.46
2018-02-20T20:01:54.608Z,5.54
2018-02-20T20:04:22.238Z,5.57
2018-02-20T20:06:49.816Z,5.55
2018-02-20T20:09:17.463Z,5.57
2018-02-20T20:11:45.096Z,5.58
2018-02-20T20:14:12.685Z,5.53
2018-02-20T20:16:40.363Z,5.51
2018-02-20T20:19:08.116Z,5.54
2018-02-20T20:21:35.714Z,5.50
2018-02-20T20:24:03.283Z,5.51
2018-02-20T20:26:30.887Z,5.45
2018-02-20T20:28:58.473Z,5.44
2018-02-20T20:31:26.057Z,5.36
2018-02-20T20:33:53.690Z,5.37
2018-02-20T20:36:21.272Z,5.37
2018-02-20T20:38:48.838Z,5.37
2018-02-20T20:41:16.728Z,5.38
2018-02-20T20:43:49.245Z,5.37
2018-02-20T20:46:16.879Z,5.36
2018-02-20T20:48:44.642Z,5.36
2018-02-20T20:51:12.205Z,5.34
2018-02-20T20:53:39.828Z,5.36
2018-02-20T20:56:07.612Z,5.39
2018-02-20T20:58:35.195Z,5.39
2018-02-20T21:01:02.834Z,5.40
2018-02-20T21:03:30.462Z,5.44
2018-02-20T21:05:58.025Z,5.49
2018-02-20T21:08:29.258Z,5.43
2018-02-20T21:10:56.833Z,5.39
2018-02-20T21:13:24.393Z,5.35
2018-02-20T21:15:52.035Z,5.36
2018-02-20T21:18:19.643Z,5.35
2018-02-20T21:20:47.218Z,5.36
2018-02-20T21:23:15.180Z,5.42
2018-02-20T21:25:42.743Z,5.43
2018-02-20T21:28:10.805Z,5.45
2018-02-20T21:30:38.443Z,5.47
2018-02-20T21:33:06.070Z,5.48
2018-02-20T21:35:33.646Z,5.51
2018-02-20T21:38:01.276Z,5.44
2018-02-20T21:40:28.874Z,5.43
2018-02-20T21:42:56.427Z,5.41
2018-02-20T21:45:24.302Z,5.37
2018-02-20T21:47:51.873Z,5.40
2018-02-20T21:50:19.441Z,5.40
2018-02-20T21:52:47.095Z,5.41
2018-02-20T21:55:14.667Z,5.45
2018-02-20T21:57:43.175Z,5.33
2018-02-20T22:00:10.839Z,5.39
2018-02-20T22:02:38.408Z,5.40
2018-02-20T22:05:05.990Z,5.38
2018-02-20T22:07:33.634Z,5.39
2018-02-20T22:10:03.371Z,5.45
2018-02-20T22:12:30.955Z,5.50
2018-02-20T22:14:58.631Z,5.40
2018-02-20T22:17:26.294Z,5.39
2018-02-20T22:19:53.872Z,5.33
2018-02-20T22:22:21.538Z,5.36
2018-02-20T22:24:49.100Z,5.38
2018-02-20T22:27:16.690Z,5.29
2018-02-20T22:29:44.714Z,5.30
2018-02-20T22:32:12.315Z,5.29
2018-02-20T22:34:39.893Z,5.29
2018-02-20T22:37:07.626Z,5.27
2018-02-20T22:39:35.194Z,5.28
2018-02-20T22:42:02.830Z,5.33
2018-02-20T22:44:30.526Z,5.16
2018-02-20T22:46:58.165Z,5.26
2018-02-20T22:49:25.754Z,5.24
2018-02-20T22:51:53.650Z,5.19
2018-02-20T22:54:21.278Z,5.19
2018-02-20T22:56:48.842Z,5.20
2018-02-20T22:59:17.160Z,5.28
2018-02-20T23:01:44.836Z,5.24
2018-02-20T23:04:12.423Z,5.26
2018-02-20T23:06:40.056Z,5.25
2018-02-20T23:09:07.854Z,5.23
2018-02-20T23:11:47.236Z,5.26
2018-02-20T23:14:14.792Z,5.21
2018-02-20T23:16:42.352Z,5.19
2018-02-20T23:19:09.986Z,5.23
2018-02-20T23:21:37.549Z,5.21
2018-02-20T23:24:05.333Z,5.25
2018-02-20T23:26:32.948Z,5.26
2018-02-20T23:29:00.513Z,5.30
2018-02-20T23:31:28.101Z,5.30
2018-02-20T23:33:55.722Z,5.29
2018-02-20T23:36:23.282Z,5.27
2018-02-20T23:38:50.843Z,5.25
2018-02-20T23:41:18.465Z,5.26
2018-02-20T23:43:46.028Z,5.29
2018-02-20T23:46:13.616Z,5.34
2018-02-20T23:48:41.593Z,5.32
2018-02-20T23:51:15.149Z,5.30
2018-02-20T23:53:43.112Z,5.25
2018-02-20T23:56:10.703Z,5.24
2018-02-20T23:58:38.269Z,5.15
